createdAt,value
2019-02-09T00:01:39.305Z,8.15
2019-02-09T00:04:05.578Z,8.24
2019-02-09T00:06:31.793Z,8.28
2019-02-09T00:08:58.057Z,8.22
2019-02-09T00:11:24.323Z,8.13
2019-02-09T00:13:50.508Z,8.22
2019-02-09T00:16:16.789Z,8.24
2019-02-09T00:18:43.052Z,8.04
2019-02-09T00:21:09.248Z,8.14
2019-02-09T00:23:35.528Z,8.20
2019-02-09T00:26:01.807Z,8.20
2019-02-09T00:28:28.008Z,8.15
2019-02-09T00:30:54.269Z,8.11
2019-02-09T00:33:20.550Z,8.16
2019-02-09T00:35:46.749Z,8.24
2019-02-09T00:38:13.081Z,8.22
2019-02-09T00:40:39.349Z,8.07
2019-02-09T00:43:05.634Z,8.20
2019-02-09T00:45:32.861Z,8.17
2019-02-09T00:47:59.135Z,8.18
2019-02-09T00:50:25.833Z,8.18
2019-02-09T00:52:52.126Z,8.16
2019-02-09T00:55:23.774Z,8.14
2019-02-09T00:57:51.970Z,8.23
2019-02-09T01:00:21.533Z,8.19
2019-02-09T01:02:47.796Z,8.00
2019-02-09T01:05:16.689Z,7.96
2019-02-09T01:07:42.974Z,8.02
2019-02-09T01:10:12.649Z,8.03
2019-02-09T01:12:38.848Z,8.25
2019-02-09T01:15:08.725Z,8.23
2019-02-09T01:17:34.884Z,8.27
2019-02-09T01:20:01.076Z,8.25
2019-02-09T01:22:27.373Z,8.01
2019-02-09T01:24:53.536Z,7.79
2019-02-09T01:27:19.839Z,7.70
2019-02-09T01:29:46.101Z,7.60
2019-02-09T01:32:12.271Z,7.39
2019-02-09T01:34:38.982Z,7.54
2019-02-09T01:37:05.255Z,7.24
2019-02-09T01:39:31.408Z,7.49
2019-02-09T01:41:57.732Z,7.51
2019-02-09T01:44:23.988Z,7.33
2019-02-09T01:46:50.148Z,7.34
2019-02-09T01:49:16.461Z,7.38
2019-02-09T01:51:42.647Z,7.38
2019-02-09T01:54:08.811Z,7.35
2019-02-09T01:56:35.173Z,7.26
2019-02-09T01:59:01.456Z,7.26
2019-02-09T02:01:27.613Z,7.39
2019-02-09T02:03:53.810Z,7.34
2019-02-09T02:06:19.982Z,7.29
2019-02-09T02:08:46.246Z,7.22
2019-02-09T02:11:12.547Z,7.24
2019-02-09T02:13:38.829Z,7.01
2019-02-09T02:16:05.478Z,6.91
2019-02-09T02:18:31.823Z,6.79
2019-02-09T02:20:58.028Z,6.68
2019-02-09T02:23:24.192Z,6.80
2019-02-09T02:25:50.404Z,6.95
2019-02-09T02:28:16.565Z,7.01
2019-02-09T02:30:42.823Z,7.03
2019-02-09T02:33:09.023Z,7.05
2019-02-09T02:35:36.190Z,7.08
2019-02-09T02:38:02.749Z,7.08
2019-02-09T02:40:28.943Z,7.13
2019-02-09T02:42:55.110Z,7.17
2019-02-09T02:45:22.772Z,7.22
2019-02-09T02:47:49.374Z,7.19
2019-02-09T02:50:17.342Z,7.03
2019-02-09T02:52:43.496Z,6.96
2019-02-09T02:55:14.716Z,7.13
2019-02-09T02:57:41.034Z,7.13
2019-02-09T03:00:13.436Z,7.18
2019-02-09T03:02:40.063Z,7.27
2019-02-09T03:05:09.703Z,7.38
2019-02-09T03:07:35.878Z,7.37
2019-02-09T03:10:03.504Z,7.48
2019-02-09T03:12:29.678Z,7.48
2019-02-09T03:14:55.965Z,7.79
2019-02-09T03:17:22.257Z,7.93
2019-02-09T03:19:48.431Z,8.67
2019-02-09T03:22:14.699Z,9.21
2019-02-09T03:24:40.909Z,9.08
2019-02-09T03:27:07.067Z,9.01
2019-02-09T03:29:33.339Z,9.12
2019-02-09T03:31:59.527Z,9.13
2019-02-09T03:34:25.795Z,9.50
2019-02-09T03:36:52.088Z,9.22
2019-02-09T03:39:18.301Z,9.16
2019-02-09T03:41:44.548Z,9.03
2019-02-09T03:44:10.821Z,8.83
2019-02-09T03:46:37.028Z,8.36
2019-02-09T03:49:03.391Z,8.73
2019-02-09T03:51:29.578Z,8.97
2019-02-09T03:53:55.802Z,9.33
2019-02-09T03:56:22.064Z,8.65
2019-02-09T03:58:49.166Z,8.67
2019-02-09T04:01:15.481Z,8.56
2019-02-09T04:03:41.956Z,8.75
2019-02-09T04:06:08.222Z,8.91
2019-02-09T04:08:34.547Z,8.89
2019-02-09T04:11:00.702Z,8.77
2019-02-09T04:13:26.963Z,8.46
2019-02-09T04:15:53.179Z,8.89
2019-02-09T04:18:19.444Z,9.39
2019-02-09T04:20:45.606Z,9.40
2019-02-09T04:23:11.807Z,9.31
2019-02-09T04:25:38.180Z,9.71
2019-02-09T04:28:04.437Z,9.66
2019-02-09T04:30:31.758Z,9.81
2019-02-09T04:32:58.319Z,9.64
2019-02-09T04:35:24.497Z,9.78
2019-02-09T04:37:50.985Z,9.59
2019-02-09T04:40:20.146Z,9.29
2019-02-09T04:42:46.427Z,9.22
2019-02-09T04:45:14.740Z,8.91
2019-02-09T04:47:41.012Z,9.36
2019-02-09T04:50:09.669Z,9.22
2019-02-09T04:52:35.980Z,8.73
2019-02-09T04:55:02.357Z,9.17
2019-02-09T04:57:28.643Z,9.32
2019-02-09T04:59:54.999Z,9.35
2019-02-09T05:02:22.096Z,9.11
2019-02-09T05:04:48.365Z,9.55
2019-02-09T05:07:14.562Z,9.51
2019-02-09T05:09:40.732Z,9.25
2019-02-09T05:12:07.360Z,9.53
2019-02-09T05:14:33.563Z,9.70
2019-02-09T05:16:59.749Z,9.87
2019-02-09T05:19:26.011Z,10.12
2019-02-09T05:21:52.220Z,10.06
2019-02-09T05:24:18.533Z,9.74
2019-02-09T05:26:44.691Z,9.93
2019-02-09T05:29:10.886Z,9.57
2019-02-09T05:31:37.163Z,9.64
2019-02-09T05:34:03.612Z,9.44
2019-02-09T05:36:29.909Z,9.50
2019-02-09T05:38:56.068Z,9.14
2019-02-09T05:41:22.352Z,9.29
2019-02-09T05:43:48.633Z,9.40
2019-02-09T05:46:14.811Z,9.58
2019-02-09T05:48:41.104Z,9.63
2019-02-09T05:51:07.312Z,9.63
2019-02-09T05:53:33.585Z,9.94
2019-02-09T05:55:59.756Z,10.12
2019-02-09T05:58:26.056Z,10.27
2019-02-09T06:00:53.283Z,10.39
2019-02-09T06:03:19.714Z,10.34
2019-02-09T06:05:46.034Z,10.34
2019-02-09T06:08:12.194Z,9.97
2019-02-09T06:10:38.452Z,10.25
2019-02-09T06:13:04.863Z,10.56
2019-02-09T06:15:31.124Z,10.53
2019-02-09T06:17:57.424Z,10.68
2019-02-09T06:20:27.680Z,10.25
2019-02-09T06:22:54.042Z,10.03
2019-02-09T06:25:20.211Z,9.89
2019-02-09T06:27:46.511Z,10.40
2019-02-09T06:30:16.381Z,10.60
2019-02-09T06:32:42.539Z,10.78
2019-02-09T06:35:10.139Z,10.83
2019-02-09T06:37:36.440Z,10.95
2019-02-09T06:40:05.881Z,10.88
2019-02-09T06:42:32.073Z,11.19
2019-02-09T06:44:58.238Z,11.22
2019-02-09T06:47:24.516Z,11.11
2019-02-09T06:49:50.811Z,10.97
2019-02-09T06:52:16.970Z,10.64
2019-02-09T06:54:43.250Z,10.41
2019-02-09T06:57:09.557Z,11.13
2019-02-09T06:59:35.818Z,11.84
2019-02-09T07:02:03.803Z,12.32
2019-02-09T07:04:30.153Z,12.69
2019-02-09T07:06:56.466Z,12.59
2019-02-09T07:09:22.630Z,12.59
2019-02-09T07:11:48.832Z,12.79
2019-02-09T07:14:15.393Z,12.71
2019-02-09T07:16:41.556Z,12.66
2019-02-09T07:19:07.773Z,12.56
2019-02-09T07:21:33.924Z,12.50
2019-02-09T07:24:00.178Z,12.18
2019-02-09T07:26:26.364Z,12.07
2019-02-09T07:28:52.532Z,11.80
2019-02-09T07:31:18.834Z,11.99
2019-02-09T07:33:45.024Z,12.10
2019-02-09T07:36:11.262Z,12.38
2019-02-09T07:38:37.428Z,12.51
2019-02-09T07:41:03.737Z,12.35
2019-02-09T07:43:30.006Z,12.11
2019-02-09T07:45:56.167Z,12.31
2019-02-09T07:48:24.079Z,12.68
2019-02-09T07:50:52.357Z,12.58
2019-02-09T07:53:18.631Z,12.60
2019-02-09T07:55:45.145Z,12.95
2019-02-09T07:58:11.400Z,12.94
2019-02-09T08:00:37.561Z,13.08
2019-02-09T08:03:04.607Z,13.51
2019-02-09T08:05:32.115Z,13.92
2019-02-09T08:07:58.350Z,14.04
2019-02-09T08:10:28.140Z,14.31
2019-02-09T08:12:54.605Z,14.40
2019-02-09T08:15:23.069Z,14.42
2019-02-09T08:17:51.497Z,14.45
2019-02-09T08:20:19.969Z,14.54
2019-02-09T08:22:46.535Z,13.75
2019-02-09T08:25:20.562Z,14.03
2019-02-09T08:27:46.869Z,13.77
2019-02-09T08:30:16.233Z,14.11
2019-02-09T08:32:42.421Z,14.14
2019-02-09T08:35:08.704Z,14.33
2019-02-09T08:37:34.903Z,14.72
2019-02-09T08:40:01.048Z,14.79
2019-02-09T08:42:27.208Z,15.30
2019-02-09T08:44:53.369Z,14.96
2019-02-09T08:47:19.675Z,15.08
2019-02-09T08:49:45.841Z,15.50
2019-02-09T08:52:12.102Z,15.73
2019-02-09T08:54:38.422Z,16.24
2019-02-09T08:57:04.585Z,16.81
2019-02-09T08:59:30.855Z,15.40
2019-02-09T09:01:57.073Z,15.65
2019-02-09T09:04:23.687Z,15.87
2019-02-09T09:06:49.836Z,16.15
2019-02-09T09:09:16.026Z,15.66
2019-02-09T09:11:42.188Z,16.26
2019-02-09T09:14:08.343Z,15.71
2019-02-09T09:16:34.540Z,16.15
2019-02-09T09:19:00.820Z,16.06
2019-02-09T09:21:27.107Z,15.90
2019-02-09T09:23:53.418Z,15.17
2019-02-09T09:26:19.572Z,16.58
2019-02-09T09:28:45.852Z,17.48
2019-02-09T09:31:12.052Z,17.89
2019-02-09T09:33:38.212Z,17.46
2019-02-09T09:36:04.670Z,16.32
2019-02-09T09:38:30.872Z,16.13
2019-02-09T09:40:57.203Z,17.38
2019-02-09T09:43:23.392Z,17.56
2019-02-09T09:45:49.579Z,16.60
2019-02-09T09:48:20.112Z,15.68
2019-02-09T09:50:46.272Z,16.57
2019-02-09T09:53:12.471Z,16.58
2019-02-09T09:55:39.303Z,15.40
2019-02-09T09:58:05.576Z,15.80
2019-02-09T10:00:32.291Z,14.99
2019-02-09T10:02:58.454Z,14.97
2019-02-09T10:05:24.783Z,14.47
2019-02-09T10:07:51.305Z,15.36
2019-02-09T10:10:18.893Z,15.29
2019-02-09T10:12:45.317Z,15.08
2019-02-09T10:15:14.886Z,14.51
2019-02-09T10:17:41.189Z,15.11
2019-02-09T10:20:10.868Z,15.71
2019-02-09T10:22:37.203Z,16.21
2019-02-09T10:25:05.177Z,15.78
2019-02-09T10:27:31.348Z,15.48
2019-02-09T10:29:57.656Z,14.39
2019-02-09T10:32:23.918Z,15.09
2019-02-09T10:34:50.070Z,15.02
2019-02-09T10:37:16.409Z,14.83
2019-02-09T10:39:42.571Z,15.20
2019-02-09T10:42:08.756Z,16.11
2019-02-09T10:44:35.162Z,16.53
2019-02-09T10:47:01.320Z,16.67
2019-02-09T10:49:27.613Z,16.90
2019-02-09T10:51:53.825Z,16.11
2019-02-09T10:54:19.990Z,16.21
2019-02-09T10:56:46.262Z,16.25
2019-02-09T10:59:12.613Z,16.81
2019-02-09T11:01:38.874Z,16.32
2019-02-09T11:04:05.842Z,15.47
2019-02-09T11:06:32.095Z,15.56
2019-02-09T11:08:58.246Z,15.22
2019-02-09T11:11:24.410Z,15.31
2019-02-09T11:13:52.523Z,15.65
2019-02-09T11:16:18.702Z,16.09
2019-02-09T11:18:46.791Z,17.05
2019-02-09T11:21:12.983Z,17.59
2019-02-09T11:23:39.237Z,17.38
2019-02-09T11:26:08.032Z,16.68
2019-02-09T11:28:37.151Z,17.37
2019-02-09T11:31:03.531Z,16.54
2019-02-09T11:33:29.688Z,16.98
2019-02-09T11:35:55.997Z,17.45
2019-02-09T11:38:22.166Z,16.33
2019-02-09T11:40:48.341Z,16.60
2019-02-09T11:43:14.639Z,15.67
2019-02-09T11:45:40.793Z,15.24
2019-02-09T11:48:06.961Z,15.34
2019-02-09T11:50:33.664Z,14.84
2019-02-09T11:52:59.827Z,15.70
2019-02-09T11:55:26.085Z,16.07
2019-02-09T11:57:52.343Z,16.39
2019-02-09T12:00:27.423Z,16.06
2019-02-09T12:02:53.689Z,16.86
2019-02-09T12:05:20.288Z,16.79
2019-02-09T12:07:47.817Z,16.90
2019-02-09T12:10:16.906Z,15.68
2019-02-09T12:12:43.096Z,15.09
2019-02-09T12:15:12.970Z,14.95
2019-02-09T12:17:39.232Z,15.77
2019-02-09T12:20:30.289Z,16.65
2019-02-09T12:22:56.445Z,17.19
2019-02-09T12:25:25.322Z,17.51
2019-02-09T12:27:51.835Z,16.96
2019-02-09T12:30:20.895Z,16.42
2019-02-09T12:32:47.285Z,16.64
2019-02-09T12:35:14.165Z,17.16
2019-02-09T12:37:40.439Z,17.59
2019-02-09T12:40:10.332Z,17.83
2019-02-09T12:42:36.627Z,17.50
2019-02-09T12:45:06.405Z,17.09
2019-02-09T12:47:41.638Z,16.14
2019-02-09T12:50:11.448Z,14.91
2019-02-09T12:52:37.613Z,15.39
2019-02-09T12:55:05.786Z,15.67
2019-02-09T12:57:31.979Z,15.86
2019-02-09T12:59:58.346Z,16.42
2019-02-09T13:02:24.534Z,16.76
2019-02-09T13:04:50.714Z,16.72
2019-02-09T13:07:16.977Z,16.91
2019-02-09T13:09:44.001Z,17.40
2019-02-09T13:12:10.199Z,17.19
2019-02-09T13:14:36.371Z,16.10
2019-02-09T13:17:02.931Z,16.78
2019-02-09T13:19:29.277Z,16.98
2019-02-09T13:21:55.532Z,17.11
2019-02-09T13:24:27.551Z,16.51
2019-02-09T13:26:53.834Z,15.53
2019-02-09T13:29:20.103Z,15.75
2019-02-09T13:31:46.266Z,15.20
2019-02-09T13:34:12.460Z,15.37
2019-02-09T13:36:38.636Z,14.73
2019-02-09T13:39:06.091Z,15.62
2019-02-09T13:41:32.285Z,16.24
2019-02-09T13:43:58.460Z,15.21
2019-02-09T13:46:24.630Z,15.54
2019-02-09T13:48:50.827Z,15.24
2019-02-09T13:51:16.983Z,15.92
2019-02-09T13:53:43.250Z,16.38
2019-02-09T13:56:09.441Z,16.65
2019-02-09T13:58:35.612Z,16.54
2019-02-09T14:01:03.599Z,16.38
2019-02-09T14:03:29.995Z,15.76
2019-02-09T14:05:56.160Z,14.90
2019-02-09T14:08:22.416Z,14.81
2019-02-09T14:10:48.662Z,14.97
2019-02-09T14:13:15.017Z,14.88
2019-02-09T14:15:41.294Z,14.87
2019-02-09T14:18:09.393Z,14.77
2019-02-09T14:20:35.552Z,14.67
2019-02-09T14:23:01.817Z,15.21
2019-02-09T14:25:28.008Z,14.86
2019-02-09T14:27:56.574Z,14.57
2019-02-09T14:30:24.940Z,14.64
2019-02-09T14:32:52.054Z,14.62
2019-02-09T14:35:18.608Z,14.31
2019-02-09T14:37:44.779Z,14.68
2019-02-09T14:40:19.509Z,14.95
2019-02-09T14:42:45.762Z,15.08
2019-02-09T14:45:15.223Z,14.94
2019-02-09T14:47:41.525Z,14.77
2019-02-09T14:50:11.315Z,15.01
2019-02-09T14:52:37.965Z,15.04
2019-02-09T14:55:07.568Z,14.64
2019-02-09T14:57:33.726Z,14.70
2019-02-09T14:59:59.890Z,14.75
2019-02-09T15:02:26.086Z,14.33
2019-02-09T15:04:52.353Z,13.59
2019-02-09T15:07:18.520Z,13.63
2019-02-09T15:09:44.707Z,13.73
2019-02-09T15:12:10.976Z,13.54
2019-02-09T15:14:37.140Z,13.79
2019-02-09T15:17:05.449Z,13.59
2019-02-09T15:19:31.701Z,13.50
2019-02-09T15:21:57.877Z,13.67
2019-02-09T15:24:24.220Z,13.67
2019-02-09T15:26:50.469Z,13.92
2019-02-09T15:29:16.727Z,13.91
2019-02-09T15:31:42.926Z,14.10
2019-02-09T15:34:11.008Z,14.20
2019-02-09T15:36:37.189Z,14.26
2019-02-09T15:39:06.400Z,14.13
2019-02-09T15:41:32.667Z,14.26
2019-02-09T15:43:58.935Z,14.08
2019-02-09T15:46:25.133Z,13.96
2019-02-09T15:48:51.293Z,13.80
2019-02-09T15:51:17.456Z,13.58
2019-02-09T15:53:43.653Z,13.47
2019-02-09T15:56:09.812Z,13.36
2019-02-09T15:58:35.969Z,13.23
2019-02-09T16:01:02.279Z,12.62
2019-02-09T16:03:28.444Z,12.58
2019-02-09T16:05:54.703Z,12.43
2019-02-09T16:08:21.008Z,12.30
2019-02-09T16:10:47.263Z,11.92
2019-02-09T16:13:13.571Z,11.43
2019-02-09T16:15:42.625Z,11.25
2019-02-09T16:18:15.310Z,11.37
2019-02-09T16:20:41.480Z,11.36
2019-02-09T16:23:07.695Z,11.30
2019-02-09T16:25:33.870Z,11.33
2019-02-09T16:28:00.016Z,11.17
2019-02-09T16:30:29.594Z,11.07
2019-02-09T16:32:55.755Z,10.88
2019-02-09T16:35:26.678Z,10.78
2019-02-09T16:37:52.971Z,10.55
2019-02-09T16:40:21.245Z,10.31
2019-02-09T16:42:49.112Z,10.12
2019-02-09T16:45:27.634Z,9.97
2019-02-09T16:47:53.897Z,9.91
2019-02-09T16:50:20.667Z,9.74
2019-02-09T16:52:46.871Z,9.55
2019-02-09T16:55:16.278Z,9.60
2019-02-09T16:57:42.703Z,9.56
2019-02-09T17:00:29.401Z,9.52
2019-02-09T17:02:55.772Z,9.44
2019-02-09T17:05:21.932Z,9.38
2019-02-09T17:07:48.225Z,9.29
2019-02-09T17:10:17.120Z,9.34
2019-02-09T17:12:43.277Z,9.31
2019-02-09T17:15:22.299Z,9.18
2019-02-09T17:17:48.455Z,9.16
2019-02-09T17:20:15.436Z,9.03
2019-02-09T17:22:41.647Z,9.04
2019-02-09T17:25:11.499Z,8.89
2019-02-09T17:27:37.777Z,8.64
2019-02-09T17:30:13.410Z,8.75
2019-02-09T17:32:39.677Z,8.76
2019-02-09T17:35:08.349Z,8.77
2019-02-09T17:37:34.543Z,8.66
2019-02-09T17:40:00.691Z,8.65
2019-02-09T17:42:27.003Z,8.58
2019-02-09T17:44:53.163Z,8.60
2019-02-09T17:47:19.312Z,8.56
2019-02-09T17:49:46.634Z,8.48
2019-02-09T17:52:12.999Z,8.33
2019-02-09T17:54:39.147Z,8.25
2019-02-09T17:57:05.328Z,8.27
2019-02-09T17:59:31.521Z,8.18
2019-02-09T18:01:57.779Z,8.06
2019-02-09T18:04:23.930Z,8.15
2019-02-09T18:06:50.126Z,8.13
2019-02-09T18:09:16.540Z,8.01
2019-02-09T18:11:42.702Z,8.12
2019-02-09T18:14:08.896Z,8.03
2019-02-09T18:16:35.169Z,7.94
2019-02-09T18:19:01.428Z,7.97
2019-02-09T18:21:27.614Z,7.98
2019-02-09T18:23:53.910Z,7.97
2019-02-09T18:26:20.073Z,7.90
2019-02-09T18:28:46.278Z,7.84
2019-02-09T18:31:12.544Z,7.82
2019-02-09T18:33:38.708Z,7.87
2019-02-09T18:36:05.109Z,7.81
2019-02-09T18:38:31.367Z,7.84
2019-02-09T18:40:57.620Z,7.82
2019-02-09T18:43:23.824Z,7.77
2019-02-09T18:45:52.948Z,7.69
2019-02-09T18:48:18.143Z,7.71
2019-02-09T18:50:44.347Z,7.74
2019-02-09T18:53:10.606Z,7.82
2019-02-09T18:55:36.766Z,7.74
2019-02-09T18:58:03.066Z,7.82
2019-02-09T19:00:35.698Z,7.89
2019-02-09T19:03:01.879Z,7.98
2019-02-09T19:05:28.060Z,7.98
2019-02-09T19:07:54.221Z,7.91
2019-02-09T19:10:25.025Z,7.78
2019-02-09T19:12:51.612Z,7.92
2019-02-09T19:15:19.773Z,7.89
2019-02-09T19:17:47.306Z,7.87
2019-02-09T19:20:16.507Z,7.93
2019-02-09T19:22:42.784Z,7.83
2019-02-09T19:25:12.665Z,7.77
2019-02-09T19:27:38.867Z,7.75
2019-02-09T19:30:17.091Z,7.63
2019-02-09T19:32:43.300Z,7.53
2019-02-09T19:35:12.059Z,7.40
2019-02-09T19:37:37.722Z,7.28
2019-02-09T19:40:08.954Z,7.32
2019-02-09T19:42:35.609Z,7.29
2019-02-09T19:45:01.794Z,7.34
2019-02-09T19:47:27.977Z,7.36
2019-02-09T19:49:54.139Z,7.33
2019-02-09T19:52:20.309Z,7.31
2019-02-09T19:54:46.513Z,7.42
2019-02-09T19:57:12.676Z,7.44
2019-02-09T19:59:38.839Z,7.43
2019-02-09T20:02:05.734Z,7.46
2019-02-09T20:04:31.901Z,7.38
2019-02-09T20:06:58.163Z,7.31
2019-02-09T20:09:24.361Z,7.30
2019-02-09T20:11:50.538Z,7.27
2019-02-09T20:14:16.804Z,7.48
2019-02-09T20:16:43.107Z,7.59
2019-02-09T20:19:09.387Z,7.59
2019-02-09T20:21:35.548Z,7.36
2019-02-09T20:24:01.743Z,7.33
2019-02-09T20:26:28.024Z,7.38
2019-02-09T20:28:54.391Z,7.52
2019-02-09T20:31:20.694Z,7.58
2019-02-09T20:33:46.955Z,7.37
2019-02-09T20:36:13.119Z,7.88
2019-02-09T20:38:39.422Z,8.05
2019-02-09T20:41:05.797Z,8.36
2019-02-09T20:43:31.964Z,8.30
2019-02-09T20:45:58.166Z,8.22
2019-02-09T20:48:24.829Z,8.40
2019-02-09T20:50:50.994Z,8.44
2019-02-09T20:53:17.214Z,8.37
2019-02-09T20:55:43.481Z,8.33
2019-02-09T20:58:10.649Z,8.29
2019-02-09T21:00:36.966Z,8.16
2019-02-09T21:03:04.036Z,7.94
2019-02-09T21:05:36.081Z,8.13
2019-02-09T21:07:58.496Z,8.17
2019-02-09T21:10:37.395Z,7.83
2019-02-09T21:13:04.692Z,7.61
2019-02-09T21:15:30.960Z,7.47
2019-02-09T21:17:57.120Z,7.49
2019-02-09T21:20:23.962Z,7.56
2019-02-09T21:22:50.341Z,7.53
2019-02-09T21:25:28.111Z,7.59
2019-02-09T21:27:54.373Z,7.54
2019-02-09T21:30:22.043Z,7.44
2019-02-09T21:32:48.840Z,7.41
2019-02-09T21:35:16.092Z,7.60
2019-02-09T21:37:42.354Z,7.32
2019-02-09T21:40:12.050Z,7.33
2019-02-09T21:42:38.215Z,7.33
2019-02-09T21:45:07.886Z,7.48
2019-02-09T21:47:34.166Z,7.50
2019-02-09T21:50:01.634Z,7.37
2019-02-09T21:52:35.458Z,7.22
2019-02-09T21:55:01.728Z,7.23
2019-02-09T21:57:28.003Z,7.39
2019-02-09T21:59:54.201Z,7.44
2019-02-09T22:02:20.374Z,7.50
2019-02-09T22:04:46.531Z,7.54
2019-02-09T22:07:12.826Z,7.65
2019-02-09T22:09:38.994Z,7.47
2019-02-09T22:12:06.136Z,7.54
2019-02-09T22:14:32.495Z,7.63
2019-02-09T22:16:58.703Z,7.53
2019-02-09T22:19:24.860Z,7.68
2019-02-09T22:21:51.378Z,7.53
2019-02-09T22:24:17.772Z,7.63
2019-02-09T22:26:43.944Z,7.63
2019-02-09T22:29:10.154Z,7.63
2019-02-09T22:31:36.317Z,7.61
2019-02-09T22:34:02.921Z,7.73
2019-02-09T22:36:36.821Z,7.75
2019-02-09T22:38:57.239Z,8.06
2019-02-09T22:41:23.507Z,8.39
2019-02-09T22:43:49.692Z,8.13
2019-02-09T22:46:15.962Z,8.17
2019-02-09T22:48:42.116Z,8.35
2019-02-09T22:51:08.308Z,8.17
2019-02-09T22:53:34.471Z,8.14
2019-02-09T22:56:00.742Z,7.96
2019-02-09T22:58:26.933Z,7.87
2019-02-09T23:01:16.262Z,7.98
2019-02-09T23:03:46.165Z,7.86
2019-02-09T23:06:21.712Z,7.63
2019-02-09T23:08:51.304Z,7.86
2019-02-09T23:11:17.566Z,7.79
2019-02-09T23:13:43.843Z,7.70
2019-02-09T23:16:10.050Z,7.75
2019-02-09T23:18:36.320Z,7.74
2019-02-09T23:21:02.584Z,7.68
2019-02-09T23:23:28.832Z,7.60
2019-02-09T23:25:55.151Z,7.62
2019-02-09T23:28:21.281Z,7.53
2019-02-09T23:30:47.595Z,7.56
2019-02-09T23:33:13.765Z,7.39
2019-02-09T23:35:40.332Z,7.37
2019-02-09T23:38:06.418Z,7.46
2019-02-09T23:40:32.692Z,7.25
2019-02-09T23:42:58.965Z,7.06
2019-02-09T23:45:25.160Z,7.18
2019-02-09T23:47:51.422Z,7.16
2019-02-09T23:50:17.712Z,7.09
2019-02-09T23:52:43.900Z,6.90
2019-02-09T23:55:10.156Z,7.03
2019-02-09T23:57:36.315Z,6.95
